Terminal Aerodrome Forecast
Issued by NWS

Home | Current Version | Previous Version | Text Only | Print | Product List | Glossary On
Versions: 1 2 3 4 5 6 7 8 9 10 11 12 13 14 15 16 17 18 19 20 21 22 23 24 25 26 27 28 29 30 31 32 33 34 35 36 37 38 39 40 41 42 43 44 45 46 47 48 49 50
000
FTUS41 KBGM 230240 AAF
TAFELM
TAF AMD
KELM 230240Z 2303/2324 07003KT 3SM BR SCT100
      TEMPO 2303/2306 1SM BR
     FM230600 10003KT 1SM BR BKN005
     FM231200 10003KT 4SM BR BKN025
     FM231400 21010KT P6SM BKN035=

USA.gov is the U.S. government's official web portal to all federal, state and local government web resources and services.